Terminal Aerodrome Forecast
Issued by NWS

Home | Current Version | Previous Version | Text Only | Print | Product List | Glossary On
Versions: 1 2 3 4 5 6 7 8 9 10 11 12 13 14 15 16 17 18 19 20 21 22 23 24 25 26 27 28
000
FTUS45 KSLC 041737
TAFENV
TAF
KENV 041737Z 0418/0518 12007KT P6SM FEW090 BKN180
     FM042300 28012G20KT P6SM VCTS SCT080CB BKN120
     FM050200 29014G22KT P6SM VCSH SCT070 BKN110
     FM051000 VRB05KT P6SM FEW080 BKN140
      AMD LTD TO CLD VIS AND WIND=

USA.gov is the U.S. government's official web portal to all federal, state and local government web resources and services.